createdAt,value
2022-10-22T00:01:10.351Z,7.70
2022-10-22T00:03:38.356Z,7.73
2022-10-22T00:06:06.729Z,6.97
2022-10-22T00:08:34.828Z,6.87
2022-10-22T00:11:09.698Z,7.43
2022-10-22T00:13:37.666Z,6.70
2022-10-22T00:16:05.794Z,8.40
2022-10-22T00:18:35.037Z,9.60
2022-10-22T00:21:03.391Z,7.90
2022-10-22T00:23:31.290Z,9.30
2022-10-22T00:25:59.238Z,8.90
2022-10-22T00:28:27.455Z,7.53
2022-10-22T00:30:58.460Z,8.50
2022-10-22T00:33:26.421Z,8.60
2022-10-22T00:35:56.280Z,8.40
2022-10-22T00:38:24.175Z,8.10
2022-10-22T00:40:52.269Z,8.10
2022-10-22T00:43:21.098Z,7.30
2022-10-22T00:45:51.836Z,8.13
2022-10-22T00:48:23.069Z,8.03
2022-10-22T00:50:55.513Z,9.57
2022-10-22T00:53:30.920Z,8.30
2022-10-22T00:55:59.334Z,7.63
2022-10-22T00:58:30.417Z,7.97
2022-10-22T01:00:58.958Z,7.37
2022-10-22T01:03:27.055Z,6.83
2022-10-22T01:05:58.855Z,6.73
2022-10-22T01:08:36.927Z,6.77
2022-10-22T01:11:16.173Z,6.20
2022-10-22T01:13:52.446Z,6.40
2022-10-22T01:16:25.252Z,7.00
2022-10-22T01:19:02.406Z,6.67
2022-10-22T01:21:35.004Z,6.77
2022-10-22T01:24:22.247Z,7.20
2022-10-22T01:27:04.781Z,7.80
2022-10-22T01:29:38.602Z,6.93
2022-10-22T01:32:10.946Z,8.60
2022-10-22T01:34:41.437Z,7.93
2022-10-22T01:37:10.958Z,7.90
2022-10-22T01:39:41.297Z,7.87
2022-10-22T01:42:09.177Z,8.63
2022-10-22T01:44:38.524Z,8.30
2022-10-22T01:47:17.296Z,8.30
2022-10-22T01:50:05.572Z,8.80
2022-10-22T01:52:56.510Z,8.27
2022-10-22T01:55:30.550Z,8.30
2022-10-22T01:58:10.841Z,8.20
2022-10-22T02:00:45.595Z,8.37
2022-10-22T02:03:22.926Z,9.30
2022-10-22T02:05:55.122Z,9.00
2022-10-22T02:08:25.846Z,10.10
2022-10-22T02:10:54.527Z,8.97
2022-10-22T02:13:26.884Z,10.53
2022-10-22T02:15:58.567Z,9.60
2022-10-22T02:18:33.570Z,9.77
2022-10-22T02:21:03.710Z,9.10
2022-10-22T02:23:31.683Z,8.53
2022-10-22T02:26:04.308Z,9.20
2022-10-22T02:28:31.100Z,8.80
2022-10-22T02:31:07.242Z,8.80
2022-10-22T02:33:40.391Z,8.30
2022-10-22T02:36:09.934Z,7.70
2022-10-22T02:38:39.624Z,7.73
2022-10-22T02:41:07.822Z,8.20
2022-10-22T02:43:43.380Z,7.70
2022-10-22T02:46:12.915Z,7.80
2022-10-22T02:48:40.872Z,7.60
2022-10-22T02:51:09.123Z,7.27
2022-10-22T02:53:37.040Z,6.77
2022-10-22T02:56:05.787Z,5.40
2022-10-22T02:58:33.706Z,5.23
2022-10-22T03:01:02.017Z,4.40
2022-10-22T03:03:31.318Z,4.07
2022-10-22T03:05:59.215Z,3.87
2022-10-22T03:08:27.564Z,4.13
2022-10-22T03:10:55.445Z,3.57
2022-10-22T03:13:25.268Z,2.90
2022-10-22T03:15:53.177Z,2.90
2022-10-22T03:18:21.086Z,3.20
2022-10-22T03:20:50.318Z,2.83
2022-10-22T03:23:20.719Z,3.40
2022-10-22T03:25:50.310Z,3.40
2022-10-22T03:28:19.617Z,3.00
2022-10-22T03:30:47.635Z,3.10
2022-10-22T03:33:15.590Z,2.83
2022-10-22T03:35:47.024Z,3.40
2022-10-22T03:38:17.043Z,2.40
2022-10-22T03:40:47.206Z,3.27
2022-10-22T03:43:15.233Z,3.20
2022-10-22T03:45:43.198Z,2.87
2022-10-22T03:48:11.104Z,2.60
2022-10-22T03:50:38.970Z,2.90
2022-10-22T03:53:07.158Z,2.83
2022-10-22T03:55:38.093Z,2.93
2022-10-22T03:58:06.429Z,3.13
2022-10-22T04:00:36.429Z,2.87
2022-10-22T04:03:04.587Z,2.87
2022-10-22T04:05:33.821Z,3.20
2022-10-22T04:08:02.078Z,3.40
2022-10-22T04:10:29.967Z,3.30
2022-10-22T04:12:59.292Z,3.13
2022-10-22T04:15:28.951Z,2.90
2022-10-22T04:17:56.923Z,3.07
2022-10-22T04:20:24.829Z,3.73
2022-10-22T04:22:52.720Z,3.20
2022-10-22T04:25:20.644Z,3.00
2022-10-22T04:27:48.555Z,3.10
2022-10-22T04:30:18.033Z,3.20
2022-10-22T04:32:45.934Z,2.90
2022-10-22T04:35:13.860Z,2.87
2022-10-22T04:37:42.085Z,3.53
2022-10-22T04:40:11.979Z,3.10
2022-10-22T04:42:40.110Z,3.40
2022-10-22T04:45:08.994Z,3.80
2022-10-22T04:47:38.564Z,3.53
2022-10-22T04:50:08.417Z,3.70
2022-10-22T04:52:36.320Z,3.13
2022-10-22T04:55:04.345Z,3.47
2022-10-22T04:57:32.720Z,3.40
2022-10-22T05:00:00.592Z,3.23
2022-10-22T05:02:28.546Z,3.20
2022-10-22T05:04:57.848Z,3.77
2022-10-22T05:07:25.845Z,4.03
2022-10-22T05:09:54.952Z,5.60
2022-10-22T05:12:23.120Z,5.23
2022-10-22T05:14:51.344Z,4.20
2022-10-22T05:17:19.282Z,4.33
2022-10-22T05:19:47.115Z,3.90
2022-10-22T05:22:16.352Z,3.57
2022-10-22T05:24:44.281Z,3.27
2022-10-22T05:27:12.420Z,3.50
2022-10-22T05:29:40.394Z,2.70
2022-10-22T05:32:08.284Z,2.50
2022-10-22T05:34:37.056Z,3.07
2022-10-22T05:37:05.413Z,3.27
2022-10-22T05:39:36.773Z,3.00
2022-10-22T05:42:05.380Z,2.67
2022-10-22T05:44:33.368Z,4.03
2022-10-22T05:47:01.266Z,2.90
2022-10-22T05:49:29.240Z,3.30
2022-10-22T05:51:57.154Z,4.13
2022-10-22T05:54:25.060Z,4.03
2022-10-22T05:56:55.515Z,5.43
2022-10-22T05:59:23.406Z,5.07
2022-10-22T06:01:51.734Z,5.40
2022-10-22T06:04:19.694Z,6.07
2022-10-22T06:06:49.095Z,5.53
2022-10-22T06:09:20.828Z,4.90
2022-10-22T06:11:49.821Z,4.07
2022-10-22T06:14:20.498Z,4.83
2022-10-22T06:16:48.857Z,3.30
2022-10-22T06:19:19.903Z,4.00
2022-10-22T06:21:48.529Z,5.00
2022-10-22T06:24:16.921Z,4.83
2022-10-22T06:26:44.920Z,4.53
2022-10-22T06:29:12.837Z,4.10
2022-10-22T06:31:42.124Z,3.90
2022-10-22T06:34:12.750Z,3.63
2022-10-22T06:36:42.459Z,3.47
2022-10-22T06:39:13.158Z,3.57
2022-10-22T06:41:41.544Z,3.63
2022-10-22T06:44:14.501Z,3.50
2022-10-22T06:46:44.364Z,3.20
2022-10-22T06:49:14.828Z,3.23
2022-10-22T06:51:42.701Z,2.90
2022-10-22T06:54:10.922Z,2.90
2022-10-22T06:56:38.879Z,2.77
2022-10-22T06:59:06.736Z,2.90
2022-10-22T07:01:36.144Z,3.47
2022-10-22T07:04:09.794Z,3.53
2022-10-22T07:06:37.696Z,2.63
2022-10-22T07:09:05.935Z,2.90
2022-10-22T07:11:40.551Z,2.57
2022-10-22T07:14:08.963Z,2.43
2022-10-22T07:16:37.764Z,2.47
2022-10-22T07:19:07.185Z,2.53
2022-10-22T07:21:36.951Z,1.97
2022-10-22T07:24:05.200Z,2.63
2022-10-22T07:26:33.205Z,2.97
2022-10-22T07:29:01.430Z,2.50
2022-10-22T07:31:29.767Z,2.30
2022-10-22T07:33:58.041Z,2.10
2022-10-22T07:36:27.783Z,2.60
2022-10-22T07:38:57.738Z,2.13
2022-10-22T07:41:26.138Z,2.00
2022-10-22T07:43:54.177Z,2.33
2022-10-22T07:46:22.450Z,2.17
2022-10-22T07:48:50.639Z,1.90
2022-10-22T07:51:18.659Z,1.80
2022-10-22T07:53:47.956Z,1.73
2022-10-22T07:56:15.904Z,1.80
2022-10-22T07:58:44.099Z,1.90
2022-10-22T08:01:12.316Z,2.10
2022-10-22T08:03:40.292Z,1.83
2022-10-22T08:06:08.754Z,1.57
2022-10-22T08:08:36.866Z,1.63
2022-10-22T08:11:06.263Z,1.80
2022-10-22T08:13:34.187Z,2.10
2022-10-22T08:16:03.036Z,3.27
2022-10-22T08:18:31.480Z,2.90
2022-10-22T08:20:59.738Z,1.77
2022-10-22T08:23:28.959Z,1.37
2022-10-22T08:25:58.438Z,1.70
2022-10-22T08:28:30.299Z,1.60
2022-10-22T08:30:58.338Z,1.50
2022-10-22T08:33:26.328Z,1.77
2022-10-22T08:35:54.449Z,1.50
2022-10-22T08:38:22.412Z,1.80
2022-10-22T08:40:52.638Z,1.50
2022-10-22T08:43:57.855Z,1.50
2022-10-22T08:46:34.815Z,1.60
2022-10-22T08:49:05.807Z,1.40
2022-10-22T08:51:36.776Z,1.50
2022-10-22T08:54:16.406Z,1.30
2022-10-22T08:56:46.896Z,1.30
2022-10-22T08:59:21.306Z,1.40
2022-10-22T09:01:52.634Z,1.27
2022-10-22T09:04:26.161Z,1.30
2022-10-22T09:06:55.004Z,1.60
2022-10-22T09:09:25.770Z,1.60
2022-10-22T09:11:55.465Z,1.20
2022-10-22T09:14:26.755Z,1.10
2022-10-22T09:17:13.923Z,1.13
2022-10-22T09:19:54.259Z,1.00
2022-10-22T09:22:30.598Z,1.20
2022-10-22T09:25:00.949Z,1.10
2022-10-22T09:27:30.523Z,1.27
2022-10-22T09:29:59.850Z,1.93
2022-10-22T09:32:28.183Z,1.30
2022-10-22T09:34:59.030Z,1.40
2022-10-22T09:37:28.986Z,1.60
2022-10-22T09:39:58.956Z,1.00
2022-10-22T09:42:26.889Z,1.13
2022-10-22T09:44:56.330Z,1.27
2022-10-22T09:47:43.215Z,1.20
2022-10-22T09:50:26.346Z,1.57
2022-10-22T09:53:01.916Z,1.37
2022-10-22T09:55:30.331Z,0.90
2022-10-22T09:58:00.916Z,0.73
2022-10-22T10:00:30.727Z,1.40
2022-10-22T10:03:01.269Z,0.97
2022-10-22T10:05:32.563Z,0.90
2022-10-22T10:08:03.771Z,1.30
2022-10-22T10:10:46.592Z,1.03
2022-10-22T10:13:41.510Z,1.03
2022-10-22T10:16:16.940Z,1.10
2022-10-22T10:19:00.538Z,1.10
2022-10-22T10:21:36.055Z,1.10
2022-10-22T10:24:16.163Z,1.27
2022-10-22T10:26:50.903Z,1.47
2022-10-22T10:29:33.835Z,1.30
2022-10-22T10:32:13.722Z,1.03
2022-10-22T10:34:49.259Z,2.10
2022-10-22T10:37:23.155Z,1.10
2022-10-22T10:40:22.858Z,1.00
2022-10-22T10:42:56.498Z,0.97
2022-10-22T10:45:30.109Z,1.00
2022-10-22T10:48:22.964Z,1.07
2022-10-22T10:51:04.933Z,0.90
2022-10-22T10:53:48.403Z,1.30
2022-10-22T10:56:29.626Z,0.83
2022-10-22T10:59:08.395Z,1.10
2022-10-22T11:01:48.097Z,1.47
2022-10-22T11:04:39.900Z,0.97
2022-10-22T11:07:30.028Z,1.30
2022-10-22T11:10:05.516Z,0.80
2022-10-22T11:12:38.037Z,0.83
2022-10-22T11:15:17.539Z,1.30
2022-10-22T11:17:49.738Z,1.20
2022-10-22T11:20:23.455Z,1.23
2022-10-22T11:23:18.073Z,1.20
2022-10-22T11:25:47.466Z,0.97
2022-10-22T11:28:20.828Z,1.00
2022-10-22T11:30:54.521Z,1.00
2022-10-22T11:33:27.782Z,1.20
2022-10-22T11:35:58.421Z,1.20
2022-10-22T11:38:30.678Z,1.63
2022-10-22T11:41:03.577Z,1.30
2022-10-22T11:43:35.501Z,1.70
2022-10-22T11:46:25.604Z,1.20
2022-10-22T11:49:03.703Z,1.20
2022-10-22T11:51:37.848Z,1.60
2022-10-22T11:54:31.298Z,1.37
2022-10-22T11:57:18.892Z,1.23
2022-10-22T11:59:51.281Z,1.77
2022-10-22T12:02:30.541Z,1.50
2022-10-22T12:05:20.184Z,1.23
2022-10-22T12:07:57.072Z,1.50
2022-10-22T12:10:29.232Z,1.30
2022-10-22T12:12:59.292Z,1.27
2022-10-22T12:15:28.569Z,1.10
2022-10-22T12:18:01.865Z,1.40
2022-10-22T12:20:30.534Z,1.30
2022-10-22T12:22:59.817Z,1.63
2022-10-22T12:25:35.722Z,1.30
2022-10-22T12:28:04.292Z,1.20
2022-10-22T12:30:34.750Z,1.10
2022-10-22T12:33:05.457Z,1.60
2022-10-22T12:35:35.616Z,1.80
2022-10-22T12:38:06.409Z,1.63
2022-10-22T12:40:37.985Z,1.40
2022-10-22T12:43:16.198Z,1.43
2022-10-22T12:45:47.902Z,1.40
2022-10-22T12:48:19.343Z,1.30
2022-10-22T12:50:51.811Z,4.00
2022-10-22T12:53:24.918Z,1.53
2022-10-22T12:55:56.579Z,1.60
2022-10-22T12:58:34.362Z,1.17
2022-10-22T13:01:02.574Z,0.90
2022-10-22T13:03:34.858Z,1.30
2022-10-22T13:06:23.891Z,1.27
2022-10-22T13:09:07.445Z,1.37
2022-10-22T13:11:42.896Z,1.30
2022-10-22T13:14:23.148Z,1.40
2022-10-22T13:17:14.915Z,1.10
2022-10-22T13:19:51.708Z,1.60
2022-10-22T13:22:34.035Z,1.77
2022-10-22T13:25:19.939Z,1.60
2022-10-22T13:27:51.217Z,1.57
2022-10-22T13:30:23.019Z,1.60
2022-10-22T13:32:52.719Z,1.60
2022-10-22T13:35:24.555Z,1.10
2022-10-22T13:37:52.549Z,1.50
2022-10-22T13:40:20.978Z,1.40
2022-10-22T13:42:50.197Z,1.57
2022-10-22T13:45:18.867Z,1.37
2022-10-22T13:47:50.548Z,1.67
2022-10-22T13:50:20.539Z,2.27
2022-10-22T13:52:52.245Z,2.20
2022-10-22T13:55:23.353Z,2.57
2022-10-22T13:57:53.214Z,2.00
2022-10-22T14:00:23.037Z,1.90
2022-10-22T14:02:54.338Z,1.90
2022-10-22T14:05:22.495Z,2.07
2022-10-22T14:07:50.808Z,1.93
2022-10-22T14:10:21.588Z,1.67
2022-10-22T14:12:52.556Z,1.77
2022-10-22T14:15:24.980Z,2.57
2022-10-22T14:17:57.277Z,1.77
2022-10-22T14:20:28.045Z,2.43
2022-10-22T14:22:56.656Z,2.03
2022-10-22T14:25:26.423Z,1.30
2022-10-22T14:27:54.733Z,1.50
2022-10-22T14:30:27.054Z,1.47
2022-10-22T14:32:54.945Z,1.90
2022-10-22T14:35:23.740Z,1.83
2022-10-22T14:37:52.197Z,1.47
2022-10-22T14:40:21.501Z,1.63
2022-10-22T14:42:50.201Z,1.90
2022-10-22T14:45:20.957Z,1.90
2022-10-22T14:47:50.786Z,2.00
2022-10-22T14:50:19.414Z,2.30
2022-10-22T14:52:47.467Z,2.37
2022-10-22T14:55:17.925Z,2.00
2022-10-22T14:57:46.171Z,2.33
2022-10-22T15:00:16.310Z,2.87
2022-10-22T15:02:44.852Z,2.13
2022-10-22T15:05:15.317Z,2.47
2022-10-22T15:07:43.466Z,1.90
2022-10-22T15:10:12.000Z,2.77
2022-10-22T15:12:39.884Z,2.00
2022-10-22T15:15:08.914Z,2.20
2022-10-22T15:17:36.824Z,1.93
2022-10-22T15:20:05.784Z,1.83
2022-10-22T15:22:36.061Z,2.10
2022-10-22T15:25:06.426Z,2.40
2022-10-22T15:27:34.426Z,2.00
2022-10-22T15:32:35.935Z,2.43
2022-10-22T15:35:05.714Z,1.60
2022-10-22T15:37:37.694Z,1.90
2022-10-22T15:40:07.921Z,1.90
2022-10-22T15:42:35.824Z,2.00
2022-10-22T15:45:03.744Z,2.00
2022-10-22T15:47:31.657Z,1.50
2022-10-22T15:49:59.522Z,1.77
2022-10-22T15:52:27.484Z,2.47
2022-10-22T15:54:56.683Z,1.93
2022-10-22T15:57:24.551Z,1.77
2022-10-22T15:59:52.444Z,2.50
2022-10-22T16:02:20.339Z,2.60
2022-10-22T16:04:48.232Z,2.40
2022-10-22T16:07:17.309Z,1.90
2022-10-22T16:09:46.738Z,2.33
2022-10-22T16:12:17.326Z,2.17
2022-10-22T16:14:45.326Z,2.20
2022-10-22T16:17:13.226Z,2.33
2022-10-22T16:19:41.103Z,2.00
2022-10-22T16:22:11.488Z,2.27
2022-10-22T16:24:40.324Z,2.07
2022-10-22T16:27:08.673Z,2.57
2022-10-22T16:29:40.332Z,2.90
2022-10-22T16:32:09.132Z,2.40
2022-10-22T16:34:37.007Z,2.80
2022-10-22T16:37:10.185Z,2.20
2022-10-22T16:39:38.761Z,2.00
2022-10-22T16:42:07.255Z,2.40
2022-10-22T16:44:35.203Z,2.20
2022-10-22T16:47:04.518Z,2.60
2022-10-22T16:49:32.389Z,2.33
2022-10-22T16:52:00.275Z,2.63
2022-10-22T16:54:28.219Z,4.60
2022-10-22T16:56:56.073Z,4.13
2022-10-22T16:59:24.038Z,2.97
2022-10-22T17:01:51.959Z,2.70
2022-10-22T17:04:22.395Z,2.90
2022-10-22T17:06:50.256Z,2.57
2022-10-22T17:09:18.210Z,4.07
2022-10-22T17:11:46.373Z,5.57
2022-10-22T17:14:14.234Z,5.57
2022-10-22T17:16:42.117Z,5.60
2022-10-22T17:19:28.930Z,6.20
2022-10-22T17:22:14.899Z,5.10
2022-10-22T17:25:37.126Z,5.37
2022-10-22T17:28:05.051Z,5.30
2022-10-22T17:30:32.930Z,3.70
2022-10-22T17:33:01.386Z,3.17
2022-10-22T17:35:29.311Z,3.33
2022-10-22T17:37:58.618Z,3.27
2022-10-22T17:40:27.011Z,2.70
2022-10-22T17:42:54.907Z,3.80
2022-10-22T17:45:23.827Z,6.70
2022-10-22T17:47:51.997Z,3.57
2022-10-22T17:50:20.254Z,3.70
2022-10-22T17:52:48.191Z,3.47
2022-10-22T17:55:17.548Z,4.17
2022-10-22T17:57:45.444Z,6.30
2022-10-22T18:00:16.117Z,5.57
2022-10-22T18:02:44.450Z,6.30
2022-10-22T18:05:13.394Z,6.00
2022-10-22T18:07:41.300Z,6.60
2022-10-22T18:10:10.314Z,7.27
2022-10-22T18:12:39.808Z,5.90
2022-10-22T18:15:08.710Z,6.30
2022-10-22T18:17:39.676Z,7.00
2022-10-22T18:20:09.240Z,6.37
2022-10-22T18:22:37.188Z,5.97
2022-10-22T18:25:05.675Z,6.33
2022-10-22T18:27:34.564Z,6.20
2022-10-22T18:30:03.959Z,6.13
2022-10-22T18:32:34.335Z,6.40
2022-10-22T18:35:02.225Z,12.30
2022-10-22T18:37:30.604Z,10.13
2022-10-22T18:39:58.568Z,7.30
2022-10-22T18:42:29.140Z,6.57
2022-10-22T18:45:00.731Z,6.00
2022-10-22T18:47:29.965Z,6.97
2022-10-22T18:49:57.994Z,7.93
2022-10-22T18:52:25.955Z,8.20
2022-10-22T18:54:54.315Z,8.47
2022-10-22T18:57:23.568Z,10.03
2022-10-22T18:59:53.604Z,11.83
2022-10-22T19:02:24.830Z,22.67
2022-10-22T19:05:00.679Z,27.97
2022-10-22T19:07:31.700Z,30.33
2022-10-22T19:10:02.812Z,28.37
2022-10-22T19:12:32.797Z,23.93
2022-10-22T19:15:03.223Z,17.27
2022-10-22T19:17:31.429Z,11.20
2022-10-22T19:20:04.342Z,7.50
2022-10-22T19:22:33.028Z,6.30
2022-10-22T19:25:09.630Z,8.83
2022-10-22T19:27:42.368Z,15.13
2022-10-22T19:30:11.992Z,11.50
2022-10-22T19:32:40.620Z,9.37
2022-10-22T19:35:10.696Z,7.37
2022-10-22T19:37:38.683Z,7.40
2022-10-22T19:40:09.123Z,8.10
2022-10-22T19:42:38.249Z,7.43
2022-10-22T19:45:19.135Z,7.00
2022-10-22T19:47:47.066Z,11.83
2022-10-22T19:50:17.294Z,19.63
2022-10-22T19:52:45.201Z,13.43
2022-10-22T19:55:13.135Z,10.07
2022-10-22T19:57:41.310Z,15.17
2022-10-22T20:00:10.608Z,10.23
2022-10-22T20:02:39.604Z,10.93
2022-10-22T20:05:08.451Z,16.07
2022-10-22T20:07:37.646Z,13.60
2022-10-22T20:10:06.857Z,9.50
2022-10-22T20:12:39.972Z,13.93
2022-10-22T20:15:09.335Z,11.80
2022-10-22T20:17:39.497Z,9.73
2022-10-22T20:20:08.118Z,9.43
2022-10-22T20:22:37.461Z,7.40
2022-10-22T20:25:06.534Z,8.83
2022-10-22T20:27:34.412Z,5.83
2022-10-22T20:30:02.663Z,5.30
2022-10-22T20:32:30.610Z,5.07
2022-10-22T20:34:58.471Z,5.47
2022-10-22T20:37:26.339Z,5.33
2022-10-22T20:39:55.612Z,5.27
2022-10-22T20:42:23.487Z,4.93
2022-10-22T20:44:51.536Z,6.07
2022-10-22T20:47:19.524Z,6.97
2022-10-22T20:49:48.992Z,5.80
2022-10-22T20:52:16.907Z,4.73
2022-10-22T20:54:46.131Z,4.77
2022-10-22T20:57:15.509Z,4.00
2022-10-22T20:59:46.161Z,4.37
2022-10-22T21:02:14.019Z,3.93
2022-10-22T21:04:44.112Z,4.50
2022-10-22T21:07:14.217Z,4.33
2022-10-22T21:09:42.125Z,7.43
2022-10-22T21:12:09.994Z,9.67
2022-10-22T21:14:39.224Z,13.40
2022-10-22T21:17:08.097Z,16.87
2022-10-22T21:19:36.075Z,12.13
2022-10-22T21:22:04.352Z,8.43
2022-10-22T21:24:32.636Z,6.30
2022-10-22T21:27:00.564Z,6.23
2022-10-22T21:29:28.584Z,5.53
2022-10-22T21:31:58.079Z,7.10
2022-10-22T21:34:26.219Z,6.50
2022-10-22T21:36:54.107Z,5.23
2022-10-22T21:39:22.003Z,6.77
2022-10-22T21:41:49.905Z,9.50
2022-10-22T21:44:17.716Z,10.50
2022-10-22T21:46:45.628Z,10.13
2022-10-22T21:49:14.868Z,12.23
2022-10-22T21:51:44.234Z,15.87
2022-10-22T21:54:13.538Z,7.47
2022-10-22T21:56:42.367Z,6.47
2022-10-22T21:59:10.255Z,4.87
2022-10-22T22:01:38.144Z,5.70
2022-10-22T22:04:07.375Z,8.13
2022-10-22T22:06:36.685Z,7.63
2022-10-22T22:09:08.702Z,6.80
2022-10-22T22:11:36.715Z,5.93
2022-10-22T22:14:04.596Z,4.90
2022-10-22T22:16:34.310Z,6.30
2022-10-22T22:21:40.126Z,6.63
2022-10-22T22:24:09.088Z,4.63
2022-10-22T22:26:37.623Z,4.90
2022-10-22T22:29:05.530Z,5.33
2022-10-22T22:31:35.436Z,5.30
2022-10-22T22:34:05.230Z,5.90
2022-10-22T22:36:35.775Z,5.60
2022-10-22T22:39:05.944Z,4.27
2022-10-22T22:41:34.257Z,3.73
2022-10-22T22:44:02.584Z,3.93
2022-10-22T22:46:30.580Z,4.17
2022-10-22T22:48:58.417Z,3.93
2022-10-22T22:51:26.433Z,3.53
2022-10-22T22:53:54.346Z,7.37
2022-10-22T22:56:25.087Z,12.53
2022-10-22T22:58:53.351Z,6.47
2022-10-22T23:01:23.598Z,4.77
2022-10-22T23:03:55.099Z,4.97
2022-10-22T23:06:23.032Z,5.03
2022-10-22T23:08:52.438Z,5.00
2022-10-22T23:11:21.109Z,5.43
2022-10-22T23:13:54.385Z,5.20
2022-10-22T23:16:24.537Z,4.60
2022-10-22T23:18:54.362Z,4.73
2022-10-22T23:21:25.449Z,5.40
2022-10-22T23:23:55.533Z,5.40
2022-10-22T23:26:26.187Z,5.00
2022-10-22T23:28:55.970Z,4.67
2022-10-22T23:31:23.989Z,4.03
2022-10-22T23:33:51.931Z,4.07
2022-10-22T23:36:19.800Z,3.83
2022-10-22T23:38:47.686Z,4.00
2022-10-22T23:41:15.568Z,3.80
2022-10-22T23:43:43.454Z,3.13
2022-10-22T23:46:14.600Z,3.40
2022-10-22T23:48:42.622Z,3.67
2022-10-22T23:51:12.652Z,3.67
2022-10-22T23:53:41.602Z,3.37
2022-10-22T23:56:11.857Z,3.30
2022-10-22T23:58:40.367Z,2.87
